sensor_id;sensor_type;location;lat;lon;timestamp;pressure;altitude;pressure_sealevel;temperature;humidity
12203;BME280;6164;42.178;24.622;2022-08-23T00:00:35;99047.03;;;20.77;100.00
12203;BME280;6164;42.178;24.622;2022-08-23T00:03:02;99043.63;;;20.65;100.00
12203;BME280;6164;42.178;24.622;2022-08-23T00:05:30;99044.03;;;20.57;100.00
12203;BME280;6164;42.178;24.622;2022-08-23T00:07:56;99043.16;;;20.51;100.00
12203;BME280;6164;42.178;24.622;2022-08-23T00:10:22;99041.78;;;20.49;100.00
12203;BME280;6164;42.178;24.622;2022-08-23T00:12:49;99033.34;;;20.40;100.00
12203;BME280;6164;42.178;24.622;2022-08-23T00:15:16;99040.22;;;20.36;100.00
12203;BME280;6164;42.178;24.622;2022-08-23T00:17:44;99043.06;;;20.30;100.00
12203;BME280;6164;42.178;24.622;2022-08-23T00:20:11;99041.28;;;20.35;100.00
12203;BME280;6164;42.178;24.622;2022-08-23T00:22:39;99049.50;;;20.29;100.00
12203;BME280;6164;42.178;24.622;2022-08-23T00:25:07;99052.66;;;20.26;100.00
12203;BME280;6164;42.178;24.622;2022-08-23T00:27:34;99051.59;;;20.27;100.00
12203;BME280;6164;42.178;24.622;2022-08-23T00:30:03;99057.69;;;20.22;100.00
12203;BME280;6164;42.178;24.622;2022-08-23T00:32:30;99065.91;;;20.32;100.00
12203;BME280;6164;42.178;24.622;2022-08-23T00:34:57;99059.72;;;20.32;100.00
12203;BME280;6164;42.178;24.622;2022-08-23T00:37:25;99059.56;;;20.38;100.00
12203;BME280;6164;42.178;24.622;2022-08-23T00:39:53;99058.53;;;20.39;100.00
12203;BME280;6164;42.178;24.622;2022-08-23T00:42:25;99052.50;;;20.49;100.00
12203;BME280;6164;42.178;24.622;2022-08-23T00:45:09;99056.31;;;20.53;100.00
12203;BME280;6164;42.178;24.622;2022-08-23T00:47:56;99066.94;;;20.48;100.00
12203;BME280;6164;42.178;24.622;2022-08-23T00:50:24;99069.72;;;20.53;100.00
12203;BME280;6164;42.178;24.622;2022-08-23T00:52:56;99077.03;;;20.57;100.00
12203;BME280;6164;42.178;24.622;2022-08-23T00:55:27;99081.59;;;20.57;100.00
12203;BME280;6164;42.178;24.622;2022-08-23T00:57:53;99094.50;;;20.60;100.00
12203;BME280;6164;42.178;24.622;2022-08-23T01:00:20;99089.72;;;20.62;100.00
12203;BME280;6164;42.178;24.622;2022-08-23T01:02:47;99099.13;;;20.64;100.00
12203;BME280;6164;42.178;24.622;2022-08-23T01:05:15;99105.56;;;20.63;100.00
12203;BME280;6164;42.178;24.622;2022-08-23T01:07:44;99097.34;;;20.70;100.00
12203;BME280;6164;42.178;24.622;2022-08-23T01:10:12;99105.78;;;20.78;100.00
12203;BME280;6164;42.178;24.622;2022-08-23T01:12:43;99083.50;;;20.78;100.00
12203;BME280;6164;42.178;24.622;2022-08-23T01:15:13;99073.59;;;20.78;100.00
12203;BME280;6164;42.178;24.622;2022-08-23T01:17:42;99080.19;;;20.71;100.00
12203;BME280;6164;42.178;24.622;2022-08-23T01:20:14;99092.06;;;20.75;100.00
12203;BME280;6164;42.178;24.622;2022-08-23T01:22:47;99089.63;;;20.73;100.00
12203;BME280;6164;42.178;24.622;2022-08-23T01:25:17;99090.97;;;20.76;100.00
12203;BME280;6164;42.178;24.622;2022-08-23T01:27:45;99091.31;;;20.79;100.00
12203;BME280;6164;42.178;24.622;2022-08-23T01:30:13;99084.41;;;20.83;100.00
12203;BME280;6164;42.178;24.622;2022-08-23T01:32:42;99090.03;;;20.82;100.00
12203;BME280;6164;42.178;24.622;2022-08-23T01:35:09;99084.59;;;20.77;100.00
12203;BME280;6164;42.178;24.622;2022-08-23T01:37:36;99100.75;;;20.82;100.00
12203;BME280;6164;42.178;24.622;2022-08-23T01:40:03;99103.13;;;20.78;100.00
12203;BME280;6164;42.178;24.622;2022-08-23T01:42:31;99118.47;;;20.83;100.00
12203;BME280;6164;42.178;24.622;2022-08-23T01:44:58;99112.94;;;20.89;100.00
12203;BME280;6164;42.178;24.622;2022-08-23T01:47:25;99105.69;;;20.90;100.00
12203;BME280;6164;42.178;24.622;2022-08-23T01:49:52;99113.75;;;20.90;100.00
12203;BME280;6164;42.178;24.622;2022-08-23T01:52:18;99103.97;;;20.84;100.00
12203;BME280;6164;42.178;24.622;2022-08-23T01:54:45;99107.09;;;20.76;100.00
12203;BME280;6164;42.178;24.622;2022-08-23T01:57:11;99102.72;;;20.70;100.00
12203;BME280;6164;42.178;24.622;2022-08-23T01:59:39;99117.28;;;20.74;100.00
12203;BME280;6164;42.178;24.622;2022-08-23T02:02:07;99110.19;;;20.68;100.00
12203;BME280;6164;42.178;24.622;2022-08-23T02:04:34;99102.53;;;20.60;100.00
12203;BME280;6164;42.178;24.622;2022-08-23T02:07:00;99105.47;;;20.42;100.00
12203;BME280;6164;42.178;24.622;2022-08-23T02:09:27;99096.44;;;20.48;100.00
12203;BME280;6164;42.178;24.622;2022-08-23T02:11:54;99096.06;;;20.39;100.00
12203;BME280;6164;42.178;24.622;2022-08-23T02:14:20;99115.00;;;20.33;100.00
12203;BME280;6164;42.178;24.622;2022-08-23T02:16:49;99119.19;;;20.29;100.00
12203;BME280;6164;42.178;24.622;2022-08-23T02:19:16;99127.72;;;20.26;100.00
12203;BME280;6164;42.178;24.622;2022-08-23T02:21:43;99118.53;;;20.22;100.00
12203;BME280;6164;42.178;24.622;2022-08-23T02:24:11;99120.97;;;20.23;100.00
12203;BME280;6164;42.178;24.622;2022-08-23T02:26:40;99133.09;;;20.26;100.00
12203;BME280;6164;42.178;24.622;2022-08-23T02:29:07;99137.97;;;20.29;100.00
12203;BME280;6164;42.178;24.622;2022-08-23T02:31:34;99142.25;;;20.30;100.00
12203;BME280;6164;42.178;24.622;2022-08-23T02:34:02;99138.88;;;20.34;100.00
12203;BME280;6164;42.178;24.622;2022-08-23T02:36:30;99148.28;;;20.37;100.00
12203;BME280;6164;42.178;24.622;2022-08-23T02:38:56;99144.00;;;20.36;100.00
12203;BME280;6164;42.178;24.622;2022-08-23T02:41:23;99154.72;;;20.36;100.00
12203;BME280;6164;42.178;24.622;2022-08-23T02:43:50;99168.91;;;20.36;100.00
12203;BME280;6164;42.178;24.622;2022-08-23T02:46:17;99176.94;;;20.36;100.00
12203;BME280;6164;42.178;24.622;2022-08-23T02:48:43;99177.53;;;20.38;100.00
12203;BME280;6164;42.178;24.622;2022-08-23T02:51:11;99181.38;;;20.42;100.00
12203;BME280;6164;42.178;24.622;2022-08-23T02:53:38;99175.19;;;20.42;100.00
12203;BME280;6164;42.178;24.622;2022-08-23T02:56:05;99170.88;;;20.41;100.00
12203;BME280;6164;42.178;24.622;2022-08-23T02:58:31;99157.16;;;20.37;100.00
12203;BME280;6164;42.178;24.622;2022-08-23T03:00:58;99159.50;;;20.34;100.00
12203;BME280;6164;42.178;24.622;2022-08-23T03:03:25;99151.44;;;20.34;100.00
12203;BME280;6164;42.178;24.622;2022-08-23T03:05:51;99151.59;;;20.27;100.00
12203;BME280;6164;42.178;24.622;2022-08-23T03:08:19;99146.88;;;20.18;100.00
12203;BME280;6164;42.178;24.622;2022-08-23T03:10:47;99153.38;;;20.22;100.00
12203;BME280;6164;42.178;24.622;2022-08-23T03:13:14;99155.31;;;20.26;100.00
12203;BME280;6164;42.178;24.622;2022-08-23T03:15:41;99164.81;;;20.17;100.00
12203;BME280;6164;42.178;24.622;2022-08-23T03:18:07;99170.06;;;20.12;100.00
12203;BME280;6164;42.178;24.622;2022-08-23T03:20:35;99172.41;;;20.09;100.00
12203;BME280;6164;42.178;24.622;2022-08-23T03:23:01;99176.63;;;20.05;100.00
12203;BME280;6164;42.178;24.622;2022-08-23T03:25:29;99170.19;;;20.06;100.00
12203;BME280;6164;42.178;24.622;2022-08-23T03:27:56;99176.28;;;20.01;100.00
12203;BME280;6164;42.178;24.622;2022-08-23T03:30:22;99188.75;;;19.96;100.00
12203;BME280;6164;42.178;24.622;2022-08-23T03:32:49;99187.25;;;20.00;100.00
12203;BME280;6164;42.178;24.622;2022-08-23T03:35:15;99194.78;;;20.03;100.00
12203;BME280;6164;42.178;24.622;2022-08-23T03:37:42;99186.75;;;20.03;100.00
12203;BME280;6164;42.178;24.622;2022-08-23T03:40:09;99193.16;;;20.02;100.00
12203;BME280;6164;42.178;24.622;2022-08-23T03:42:37;99182.56;;;19.95;100.00
12203;BME280;6164;42.178;24.622;2022-08-23T03:45:04;99191.78;;;19.99;100.00
12203;BME280;6164;42.178;24.622;2022-08-23T03:47:30;99197.22;;;20.04;100.00
12203;BME280;6164;42.178;24.622;2022-08-23T03:49:57;99201.53;;;20.05;100.00
12203;BME280;6164;42.178;24.622;2022-08-23T03:52:23;99193.38;;;20.00;100.00
12203;BME280;6164;42.178;24.622;2022-08-23T03:54:50;99202.25;;;20.01;100.00
12203;BME280;6164;42.178;24.622;2022-08-23T03:57:16;99203.31;;;20.00;100.00
12203;BME280;6164;42.178;24.622;2022-08-23T03:59:44;99204.44;;;20.04;100.00
12203;BME280;6164;42.178;24.622;2022-08-23T04:02:13;99196.66;;;20.02;100.00
12203;BME280;6164;42.178;24.622;2022-08-23T04:04:39;99196.56;;;19.97;100.00
12203;BME280;6164;42.178;24.622;2022-08-23T04:07:06;99192.16;;;19.91;100.00
12203;BME280;6164;42.178;24.622;2022-08-23T04:09:32;99197.50;;;19.91;100.00
12203;BME280;6164;42.178;24.622;2022-08-23T04:11:59;99206.44;;;19.97;100.00
12203;BME280;6164;42.178;24.622;2022-08-23T04:14:25;99209.13;;;19.97;100.00
12203;BME280;6164;42.178;24.622;2022-08-23T04:16:53;99208.09;;;19.98;100.00
12203;BME280;6164;42.178;24.622;2022-08-23T04:19:20;99194.78;;;20.03;100.00
12203;BME280;6164;42.178;24.622;2022-08-23T04:21:49;99188.84;;;20.01;100.00
12203;BME280;6164;42.178;24.622;2022-08-23T04:24:16;99185.00;;;19.97;100.00
12203;BME280;6164;42.178;24.622;2022-08-23T04:26:43;99187.94;;;19.95;100.00
12203;BME280;6164;42.178;24.622;2022-08-23T04:29:10;99184.22;;;19.96;100.00
12203;BME280;6164;42.178;24.622;2022-08-23T04:31:40;99195.59;;;20.03;100.00
12203;BME280;6164;42.178;24.622;2022-08-23T04:34:08;99188.97;;;20.06;100.00
12203;BME280;6164;42.178;24.622;2022-08-23T04:36:36;99181.00;;;20.11;100.00
12203;BME280;6164;42.178;24.622;2022-08-23T04:39:03;99178.81;;;20.19;100.00
12203;BME280;6164;42.178;24.622;2022-08-23T04:41:30;99178.31;;;20.22;100.00
12203;BME280;6164;42.178;24.622;2022-08-23T04:44:14;99175.97;;;20.26;100.00
12203;BME280;6164;42.178;24.622;2022-08-23T04:46:41;99174.03;;;20.21;100.00
12203;BME280;6164;42.178;24.622;2022-08-23T04:49:09;99181.81;;;20.23;100.00
12203;BME280;6164;42.178;24.622;2022-08-23T04:51:39;99179.53;;;20.31;100.00
12203;BME280;6164;42.178;24.622;2022-08-23T04:54:05;99171.03;;;20.34;100.00
12203;BME280;6164;42.178;24.622;2022-08-23T04:56:33;99169.25;;;20.40;100.00
12203;BME280;6164;42.178;24.622;2022-08-23T04:58:59;99161.88;;;20.47;100.00
12203;BME280;6164;42.178;24.622;2022-08-23T05:01:26;99157.09;;;20.49;100.00
12203;BME280;6164;42.178;24.622;2022-08-23T05:03:52;99154.41;;;20.49;100.00
12203;BME280;6164;42.178;24.622;2022-08-23T05:06:21;99147.63;;;20.46;100.00
12203;BME280;6164;42.178;24.622;2022-08-23T05:08:48;99158.69;;;20.50;100.00
12203;BME280;6164;42.178;24.622;2022-08-23T05:11:15;99166.34;;;20.58;100.00
12203;BME280;6164;42.178;24.622;2022-08-23T05:13:42;99162.78;;;20.52;100.00
12203;BME280;6164;42.178;24.622;2022-08-23T05:16:09;99166.59;;;20.56;100.00
12203;BME280;6164;42.178;24.622;2022-08-23T05:18:36;99156.69;;;20.57;100.00
12203;BME280;6164;42.178;24.622;2022-08-23T05:21:02;99153.59;;;20.65;100.00
12203;BME280;6164;42.178;24.622;2022-08-23T05:23:30;99156.84;;;20.67;100.00
12203;BME280;6164;42.178;24.622;2022-08-23T05:25:57;99142.69;;;20.71;100.00
12203;BME280;6164;42.178;24.622;2022-08-23T05:28:24;99157.34;;;20.80;100.00
12203;BME280;6164;42.178;24.622;2022-08-23T05:30:54;99150.81;;;20.93;100.00
12203;BME280;6164;42.178;24.622;2022-08-23T05:33:22;99139.94;;;21.00;100.00
12203;BME280;6164;42.178;24.622;2022-08-23T05:35:49;99137.41;;;21.10;100.00
12203;BME280;6164;42.178;24.622;2022-08-23T05:38:16;99131.63;;;21.18;100.00
12203;BME280;6164;42.178;24.622;2022-08-23T05:40:46;99128.25;;;21.27;100.00
12203;BME280;6164;42.178;24.622;2022-08-23T05:43:13;99122.63;;;21.29;100.00
12203;BME280;6164;42.178;24.622;2022-08-23T05:45:39;99126.53;;;21.38;100.00
12203;BME280;6164;42.178;24.622;2022-08-23T05:48:06;99116.41;;;21.45;100.00
12203;BME280;6164;42.178;24.622;2022-08-23T05:50:34;99109.22;;;21.50;100.00
12203;BME280;6164;42.178;24.622;2022-08-23T05:53:01;99122.06;;;21.48;100.00
12203;BME280;6164;42.178;24.622;2022-08-23T05:55:27;99125.16;;;21.57;100.00
12203;BME280;6164;42.178;24.622;2022-08-23T05:57:55;99119.03;;;21.61;100.00
12203;BME280;6164;42.178;24.622;2022-08-23T06:00:21;99117.53;;;21.70;100.00
12203;BME280;6164;42.178;24.622;2022-08-23T06:02:48;99113.22;;;21.69;100.00
12203;BME280;6164;42.178;24.622;2022-08-23T06:05:14;99115.72;;;21.76;100.00
12203;BME280;6164;42.178;24.622;2022-08-23T06:07:41;99125.72;;;21.80;100.00
12203;BME280;6164;42.178;24.622;2022-08-23T06:10:08;99125.41;;;21.98;100.00
12203;BME280;6164;42.178;24.622;2022-08-23T06:12:34;99122.81;;;22.08;100.00
12203;BME280;6164;42.178;24.622;2022-08-23T06:15:03;99120.19;;;22.13;100.00
12203;BME280;6164;42.178;24.622;2022-08-23T06:17:29;99125.59;;;22.18;100.00
12203;BME280;6164;42.178;24.622;2022-08-23T06:19:56;99127.53;;;22.23;100.00
12203;BME280;6164;42.178;24.622;2022-08-23T06:22:22;99125.44;;;22.30;100.00
12203;BME280;6164;42.178;24.622;2022-08-23T06:24:49;99138.25;;;22.50;100.00
12203;BME280;6164;42.178;24.622;2022-08-23T06:27:15;99120.13;;;22.62;100.00
12203;BME280;6164;42.178;24.622;2022-08-23T06:29:42;99125.09;;;22.80;100.00
12203;BME280;6164;42.178;24.622;2022-08-23T06:32:11;99127.56;;;22.86;100.00
12203;BME280;6164;42.178;24.622;2022-08-23T06:34:37;99130.13;;;23.08;100.00
12203;BME280;6164;42.178;24.622;2022-08-23T06:37:04;99124.03;;;23.22;100.00
12203;BME280;6164;42.178;24.622;2022-08-23T06:39:31;99118.91;;;23.21;100.00
12203;BME280;6164;42.178;24.622;2022-08-23T06:41:58;99120.56;;;23.27;100.00
12203;BME280;6164;42.178;24.622;2022-08-23T06:44:26;99118.75;;;23.37;100.00
12203;BME280;6164;42.178;24.622;2022-08-23T06:46:53;99121.47;;;23.42;100.00
12203;BME280;6164;42.178;24.622;2022-08-23T06:49:22;99129.81;;;23.46;100.00
12203;BME280;6164;42.178;24.622;2022-08-23T06:51:49;99135.38;;;23.29;100.00
12203;BME280;6164;42.178;24.622;2022-08-23T06:54:17;99134.31;;;23.30;100.00
12203;BME280;6164;42.178;24.622;2022-08-23T06:56:45;99140.06;;;23.44;100.00
12203;BME280;6164;42.178;24.622;2022-08-23T06:59:12;99142.16;;;23.37;100.00
12203;BME280;6164;42.178;24.622;2022-08-23T07:01:40;99146.56;;;23.53;100.00
12203;BME280;6164;42.178;24.622;2022-08-23T07:04:08;99142.78;;;23.59;100.00
12203;BME280;6164;42.178;24.622;2022-08-23T07:06:36;99146.50;;;23.43;100.00
12203;BME280;6164;42.178;24.622;2022-08-23T07:09:02;99139.56;;;23.52;100.00
12203;BME280;6164;42.178;24.622;2022-08-23T07:11:30;99145.50;;;23.64;100.00
12203;BME280;6164;42.178;24.622;2022-08-23T07:13:57;99142.53;;;23.56;100.00
12203;BME280;6164;42.178;24.622;2022-08-23T07:16:25;99149.28;;;23.63;100.00
12203;BME280;6164;42.178;24.622;2022-08-23T07:18:52;99147.44;;;23.69;100.00
12203;BME280;6164;42.178;24.622;2022-08-23T07:21:19;99150.72;;;23.86;100.00
12203;BME280;6164;42.178;24.622;2022-08-23T07:23:48;99149.97;;;23.95;100.00
12203;BME280;6164;42.178;24.622;2022-08-23T07:26:14;99151.09;;;24.04;100.00
12203;BME280;6164;42.178;24.622;2022-08-23T07:28:41;99157.06;;;24.16;100.00
12203;BME280;6164;42.178;24.622;2022-08-23T07:31:09;99153.00;;;24.24;100.00
12203;BME280;6164;42.178;24.622;2022-08-23T07:33:36;99149.00;;;24.31;100.00
12203;BME280;6164;42.178;24.622;2022-08-23T07:36:03;99157.91;;;24.47;100.00
12203;BME280;6164;42.178;24.622;2022-08-23T07:38:30;99151.44;;;24.48;100.00
12203;BME280;6164;42.178;24.622;2022-08-23T07:40:58;99144.69;;;24.60;100.00
12203;BME280;6164;42.178;24.622;2022-08-23T07:43:24;99140.63;;;24.63;100.00
12203;BME280;6164;42.178;24.622;2022-08-23T07:45:51;99144.13;;;24.43;99.02
12203;BME280;6164;42.178;24.622;2022-08-23T07:48:20;99147.41;;;24.55;100.00
12203;BME280;6164;42.178;24.622;2022-08-23T07:50:50;99151.44;;;24.58;100.00
12203;BME280;6164;42.178;24.622;2022-08-23T07:53:17;99141.19;;;24.50;99.71
12203;BME280;6164;42.178;24.622;2022-08-23T07:55:44;99143.59;;;24.46;99.00
12203;BME280;6164;42.178;24.622;2022-08-23T07:58:12;99152.22;;;24.38;100.00
12203;BME280;6164;42.178;24.622;2022-08-23T08:00:38;99146.84;;;24.43;99.54
12203;BME280;6164;42.178;24.622;2022-08-23T08:03:05;99153.34;;;24.57;100.00
12203;BME280;6164;42.178;24.622;2022-08-23T08:05:31;99155.47;;;24.50;99.08
12203;BME280;6164;42.178;24.622;2022-08-23T08:07:58;99161.47;;;24.73;100.00
12203;BME280;6164;42.178;24.622;2022-08-23T08:10:24;99156.59;;;24.80;97.81
12203;BME280;6164;42.178;24.622;2022-08-23T08:12:51;99163.91;;;24.79;99.07
12203;BME280;6164;42.178;24.622;2022-08-23T08:15:19;99164.41;;;24.81;97.28
12203;BME280;6164;42.178;24.622;2022-08-23T08:17:46;99159.84;;;24.77;95.35
12203;BME280;6164;42.178;24.622;2022-08-23T08:20:13;99163.09;;;24.84;95.80
12203;BME280;6164;42.178;24.622;2022-08-23T08:22:40;99160.66;;;24.97;96.40
12203;BME280;6164;42.178;24.622;2022-08-23T08:25:07;99160.94;;;24.96;94.59
12203;BME280;6164;42.178;24.622;2022-08-23T08:27:34;99166.56;;;24.99;95.47
12203;BME280;6164;42.178;24.622;2022-08-23T08:30:00;99167.09;;;25.11;94.51
12203;BME280;6164;42.178;24.622;2022-08-23T08:32:28;99162.22;;;25.28;94.38
12203;BME280;6164;42.178;24.622;2022-08-23T08:34:54;99157.59;;;25.39;93.80
12203;BME280;6164;42.178;24.622;2022-08-23T08:37:21;99156.53;;;25.40;92.98
12203;BME280;6164;42.178;24.622;2022-08-23T08:39:48;99155.69;;;25.49;95.61
12203;BME280;6164;42.178;24.622;2022-08-23T08:44:57;99154.91;;;25.44;92.34
12203;BME280;6164;42.178;24.622;2022-08-23T08:47:28;99147.06;;;25.32;91.59
12203;BME280;6164;42.178;24.622;2022-08-23T08:49:59;99151.16;;;25.20;93.99
12203;BME280;6164;42.178;24.622;2022-08-23T08:52:27;99153.59;;;25.16;95.44
12203;BME280;6164;42.178;24.622;2022-08-23T08:54:58;99153.06;;;24.99;95.55
12203;BME280;6164;42.178;24.622;2022-08-23T08:57:26;99156.31;;;25.01;97.81
12203;BME280;6164;42.178;24.622;2022-08-23T08:59:57;99152.81;;;25.06;98.17
12203;BME280;6164;42.178;24.622;2022-08-23T09:02:27;99148.47;;;25.00;96.17
12203;BME280;6164;42.178;24.622;2022-08-23T09:04:56;99149.28;;;25.10;99.15
12203;BME280;6164;42.178;24.622;2022-08-23T09:07:25;99145.22;;;25.03;100.00
12203;BME280;6164;42.178;24.622;2022-08-23T09:12:46;99140.09;;;25.11;98.62
12203;BME280;6164;42.178;24.622;2022-08-23T09:15:20;99133.84;;;25.21;96.81
12203;BME280;6164;42.178;24.622;2022-08-23T09:17:50;99132.75;;;25.32;96.61
12203;BME280;6164;42.178;24.622;2022-08-23T09:20:18;99138.66;;;25.49;98.70
12203;BME280;6164;42.178;24.622;2022-08-23T09:22:48;99151.09;;;25.60;96.03
12203;BME280;6164;42.178;24.622;2022-08-23T09:25:15;99160.50;;;25.62;95.26
12203;BME280;6164;42.178;24.622;2022-08-23T09:27:43;99168.06;;;25.70;96.09
12203;BME280;6164;42.178;24.622;2022-08-23T09:30:10;99173.44;;;25.80;100.00
12203;BME280;6164;42.178;24.622;2022-08-23T09:32:37;99169.38;;;25.83;97.97
12203;BME280;6164;42.178;24.622;2022-08-23T09:35:12;99177.38;;;25.98;100.00
12203;BME280;6164;42.178;24.622;2022-08-23T09:37:58;99175.47;;;26.09;97.04
12203;BME280;6164;42.178;24.622;2022-08-23T09:40:32;99171.34;;;26.21;98.07
12203;BME280;6164;42.178;24.622;2022-08-23T09:45:52;99154.75;;;26.33;90.05
12203;BME280;6164;42.178;24.622;2022-08-23T09:48:30;99156.38;;;26.39;90.50
12203;BME280;6164;42.178;24.622;2022-08-23T09:51:02;99150.59;;;26.50;88.81
12203;BME280;6164;42.178;24.622;2022-08-23T09:53:31;99155.59;;;26.72;84.84
12203;BME280;6164;42.178;24.622;2022-08-23T09:55:58;99151.63;;;26.93;85.61
12203;BME280;6164;42.178;24.622;2022-08-23T09:58:35;99145.34;;;26.97;86.95
12203;BME280;6164;42.178;24.622;2022-08-23T10:01:09;99152.13;;;27.23;87.77
12203;BME280;6164;42.178;24.622;2022-08-23T10:03:38;99157.53;;;27.29;85.46
12203;BME280;6164;42.178;24.622;2022-08-23T10:06:05;99152.63;;;27.02;93.82
12203;BME280;6164;42.178;24.622;2022-08-23T10:08:34;99152.09;;;26.71;93.62
12203;BME280;6164;42.178;24.622;2022-08-23T10:11:04;99151.03;;;26.67;94.46
12203;BME280;6164;42.178;24.622;2022-08-23T10:13:34;99154.59;;;26.58;93.12
12203;BME280;6164;42.178;24.622;2022-08-23T10:16:04;99152.03;;;26.38;93.38
12203;BME280;6164;42.178;24.622;2022-08-23T10:18:41;99155.81;;;26.42;94.78
12203;BME280;6164;42.178;24.622;2022-08-23T10:21:12;99153.94;;;26.37;93.28
12203;BME280;6164;42.178;24.622;2022-08-23T10:23:45;99148.00;;;26.35;93.80
12203;BME280;6164;42.178;24.622;2022-08-23T10:26:16;99139.84;;;26.40;93.47
12203;BME280;6164;42.178;24.622;2022-08-23T10:28:46;99140.03;;;26.54;93.39
12203;BME280;6164;42.178;24.622;2022-08-23T10:31:35;99131.63;;;26.55;90.64
12203;BME280;6164;42.178;24.622;2022-08-23T10:36:51;99140.44;;;26.71;90.88
12203;BME280;6164;42.178;24.622;2022-08-23T10:39:22;99139.13;;;26.68;87.98
12203;BME280;6164;42.178;24.622;2022-08-23T10:41:51;99142.16;;;26.90;88.31
12203;BME280;6164;42.178;24.622;2022-08-23T10:44:21;99141.97;;;27.10;86.40
12203;BME280;6164;42.178;24.622;2022-08-23T10:46:51;99136.16;;;27.51;86.27
12203;BME280;6164;42.178;24.622;2022-08-23T10:49:19;99139.69;;;27.70;82.98
12203;BME280;6164;42.178;24.622;2022-08-23T10:51:46;99138.38;;;27.91;81.96
12203;BME280;6164;42.178;24.622;2022-08-23T10:54:14;99142.81;;;28.05;83.53
12203;BME280;6164;42.178;24.622;2022-08-23T10:56:44;99138.09;;;27.92;79.87
12203;BME280;6164;42.178;24.622;2022-08-23T10:59:11;99139.84;;;28.20;79.52
12203;BME280;6164;42.178;24.622;2022-08-23T11:01:41;99136.28;;;28.25;77.34
12203;BME280;6164;42.178;24.622;2022-08-23T11:04:13;99139.69;;;28.30;76.85
12203;BME280;6164;42.178;24.622;2022-08-23T11:06:43;99138.84;;;28.35;76.70
12203;BME280;6164;42.178;24.622;2022-08-23T11:12:05;99131.84;;;28.66;74.25
12203;BME280;6164;42.178;24.622;2022-08-23T11:14:36;99120.84;;;28.58;72.87
12203;BME280;6164;42.178;24.622;2022-08-23T11:17:05;99127.19;;;28.53;72.18
12203;BME280;6164;42.178;24.622;2022-08-23T11:22:20;99118.19;;;28.71;72.10
12203;BME280;6164;42.178;24.622;2022-08-23T11:24:48;99120.56;;;28.59;73.81
12203;BME280;6164;42.178;24.622;2022-08-23T11:27:26;99126.41;;;28.48;74.31
12203;BME280;6164;42.178;24.622;2022-08-23T11:29:54;99117.91;;;28.35;73.44
12203;BME280;6164;42.178;24.622;2022-08-23T11:35:23;99121.75;;;28.53;73.20
12203;BME280;6164;42.178;24.622;2022-08-23T11:37:55;99119.06;;;28.67;71.26
12203;BME280;6164;42.178;24.622;2022-08-23T11:40:35;99120.66;;;29.00;73.25
12203;BME280;6164;42.178;24.622;2022-08-23T11:43:05;99114.03;;;29.06;70.50
12203;BME280;6164;42.178;24.622;2022-08-23T11:45:38;99115.91;;;28.92;72.33
12203;BME280;6164;42.178;24.622;2022-08-23T11:48:10;99104.94;;;28.97;70.86
12203;BME280;6164;42.178;24.622;2022-08-23T11:50:41;99106.59;;;29.11;69.05
12203;BME280;6164;42.178;24.622;2022-08-23T11:53:14;99099.38;;;29.20;67.79
12203;BME280;6164;42.178;24.622;2022-08-23T11:55:51;99094.72;;;29.34;67.43
12203;BME280;6164;42.178;24.622;2022-08-23T11:58:25;99089.59;;;29.46;65.90
12203;BME280;6164;42.178;24.622;2022-08-23T12:01:01;99085.97;;;29.51;66.36
12203;BME280;6164;42.178;24.622;2022-08-23T12:03:31;99083.25;;;29.51;66.22
12203;BME280;6164;42.178;24.622;2022-08-23T12:06:05;99083.34;;;29.59;65.48
12203;BME280;6164;42.178;24.622;2022-08-23T12:11:25;99058.69;;;29.15;66.26
12203;BME280;6164;42.178;24.622;2022-08-23T12:14:32;99054.13;;;28.97;66.11
12203;BME280;6164;42.178;24.622;2022-08-23T12:17:01;99036.53;;;29.08;69.18
12203;BME280;6164;42.178;24.622;2022-08-23T12:19:29;99039.63;;;29.42;65.92
12203;BME280;6164;42.178;24.622;2022-08-23T12:22:00;99036.91;;;29.56;65.29
12203;BME280;6164;42.178;24.622;2022-08-23T12:24:31;99025.50;;;29.81;64.71
12203;BME280;6164;42.178;24.622;2022-08-23T12:26:59;99026.84;;;29.92;65.35
12203;BME280;6164;42.178;24.622;2022-08-23T12:29:30;99028.06;;;30.00;64.32
12203;BME280;6164;42.178;24.622;2022-08-23T12:32:04;99023.44;;;30.22;63.64
12203;BME280;6164;42.178;24.622;2022-08-23T12:34:34;99017.59;;;30.15;60.88
12203;BME280;6164;42.178;24.622;2022-08-23T12:37:04;99006.81;;;30.10;61.92
12203;BME280;6164;42.178;24.622;2022-08-23T12:42:37;99005.63;;;30.69;60.67
12203;BME280;6164;42.178;24.622;2022-08-23T12:45:06;99007.09;;;30.75;61.40
12203;BME280;6164;42.178;24.622;2022-08-23T12:47:34;99009.91;;;30.61;61.29
12203;BME280;6164;42.178;24.622;2022-08-23T12:50:02;99013.06;;;30.55;59.78
12203;BME280;6164;42.178;24.622;2022-08-23T12:52:31;99014.72;;;30.64;60.25
12203;BME280;6164;42.178;24.622;2022-08-23T12:54:57;99007.97;;;30.84;58.32
12203;BME280;6164;42.178;24.622;2022-08-23T12:57:28;99005.59;;;31.00;60.46
12203;BME280;6164;42.178;24.622;2022-08-23T12:59:56;99013.56;;;30.79;58.65
12203;BME280;6164;42.178;24.622;2022-08-23T13:02:25;99009.06;;;30.52;60.72
12203;BME280;6164;42.178;24.622;2022-08-23T13:04:54;99014.31;;;30.49;60.94
12203;BME280;6164;42.178;24.622;2022-08-23T13:07:22;99016.63;;;30.33;61.58
12203;BME280;6164;42.178;24.622;2022-08-23T13:09:50;99023.72;;;30.43;61.61
12203;BME280;6164;42.178;24.622;2022-08-23T13:12:18;99018.66;;;30.50;60.85
12203;BME280;6164;42.178;24.622;2022-08-23T13:14:45;99027.13;;;30.48;61.60
12203;BME280;6164;42.178;24.622;2022-08-23T13:17:17;99025.88;;;30.54;60.09
12203;BME280;6164;42.178;24.622;2022-08-23T13:19:44;99028.56;;;30.46;61.30
12203;BME280;6164;42.178;24.622;2022-08-23T13:22:18;99027.31;;;30.30;59.98
12203;BME280;6164;42.178;24.622;2022-08-23T13:24:56;99012.88;;;30.07;60.38